Time;durP1;ratioP1;P1;durP2;ratioP2;P2;SDS_P1;SDS_P2;PMS_P1;PMS_P2;Temp;Humidity;BMP_temperature;BMP_pressure;BME280_temperature;BME280_humidity;BME280_pressure;Samples;Min_cycle;Max_cycle;Signal;HPM_P1;HPM_P2
2022/06/17 00:02:43;;;;;;;2.20;1.60;;;27.70;64.10;;;;;;10857288;32;20012;-77
2022/06/17 00:08:52;;;;;;;1.87;1.62;;;27.80;64.00;;;;;;10861250;32;20020;-77
2022/06/17 00:15:12;;;;;;;3.15;2.17;;;27.80;64.10;;;;;;10861233;32;20011;-77
2022/06/17 00:21:49;;;;;;;3.15;2.20;;;27.80;63.80;;;;;;10861089;32;20028;-77
2022/06/17 00:27:53;;;;;;;3.62;2.17;;;27.80;63.90;;;;;;10678927;33;20030;-77
2022/06/17 00:33:56;;;;;;;3.20;2.50;;;27.50;64.30;;;;;;10680699;33;20029;-77
2022/06/17 00:39:58;;;;;;;3.37;2.30;;;27.30;64.70;;;;;;10680461;33;20029;-77
2022/06/17 00:46:21;;;;;;;3.83;2.30;;;27.30;64.80;;;;;;10679920;33;20089;-77
2022/06/17 00:52:43;;;;;;;3.25;2.10;;;27.30;65.50;;;;;;10679786;33;20040;-77
2022/06/17 00:58:58;;;;;;;4.40;2.45;;;27.30;65.90;;;;;;10685365;32;20025;-77
2022/06/17 01:05:03;;;;;;;4.57;3.20;;;27.30;65.70;;;;;;10866346;32;20426;-77
2022/06/17 01:11:07;;;;;;;2.87;2.20;;;27.00;65.80;;;;;;10866354;32;20039;-77
2022/06/17 01:17:13;;;;;;;2.53;2.15;;;27.00;66.00;;;;;;10866098;32;20586;-77
2022/06/17 01:23:16;;;;;;;15.40;2.58;;;27.10;66.40;;;;;;10863949;32;20035;-77
2022/06/17 01:29:18;;;;;;;3.45;2.47;;;27.00;67.00;;;;;;10865621;32;20015;-77
2022/06/17 01:35:24;;;;;;;4.07;3.10;;;27.00;66.80;;;;;;10865203;32;20023;-77
2022/06/17 01:41:32;;;;;;;4.72;2.97;;;27.00;66.50;;;;;;10865337;32;20388;-77
2022/06/17 01:47:37;;;;;;;3.62;2.55;;;26.80;66.60;;;;;;10861861;32;20027;-75
2022/06/17 01:53:43;;;;;;;3.85;2.53;;;26.70;66.70;;;;;;10865401;32;20059;-75
2022/06/17 02:00:00;;;;;;;3.30;2.83;;;26.80;66.70;;;;;;10865314;32;20391;-75
2022/06/17 02:06:16;;;;;;;5.70;3.17;;;26.80;67.00;;;;;;10865138;32;20051;-75
2022/06/17 02:12:20;;;;;;;7.07;4.30;;;26.80;67.00;;;;;;10851925;32;20042;-76
2022/06/17 02:18:24;;;;;;;3.60;2.78;;;26.80;66.40;;;;;;10865091;32;20032;-75
2022/06/17 02:24:28;;;;;;;5.55;3.25;;;26.80;66.60;;;;;;10864518;32;20046;-75
2022/06/17 02:30:31;;;;;;;4.65;3.33;;;26.70;66.90;;;;;;10864654;32;20062;-75
2022/06/17 02:36:47;;;;;;;4.15;2.87;;;26.70;66.90;;;;;;10864537;32;20388;-75
2022/06/17 02:42:49;;;;;;;5.05;3.40;;;26.60;67.00;;;;;;10860094;32;20059;-75
2022/06/17 02:49:01;;;;;;;4.35;3.22;;;26.50;67.20;;;;;;10858947;32;20054;-75
2022/06/17 02:55:10;;;;;;;4.37;2.62;;;26.50;67.30;;;;;;10859486;32;20047;-75
2022/06/17 03:01:20;;;;;;;5.65;4.10;;;26.40;67.40;;;;;;10863856;32;20020;-75
2022/06/17 03:07:28;;;;;;;4.90;3.83;;;26.40;67.20;;;;;;10846194;32;20031;-75
2022/06/17 03:13:46;;;;;;;6.72;3.87;;;26.30;67.30;;;;;;10863366;32;20387;-75
2022/06/17 03:19:49;;;;;;;5.82;4.45;;;26.30;67.30;;;;;;10859834;32;20392;-75
2022/06/17 03:25:58;;;;;;;5.00;3.80;;;26.20;67.50;;;;;;10862738;32;20031;-75
2022/06/17 03:32:13;;;;;;;5.32;4.25;;;26.10;67.60;;;;;;10858899;32;20023;-75
2022/06/17 03:38:24;;;;;;;8.15;3.75;;;26.20;67.30;;;;;;10862645;32;20019;-75
2022/06/17 03:44:33;;;;;;;6.40;4.90;;;26.20;67.00;;;;;;10850626;32;20063;-75
2022/06/17 03:50:44;;;;;;;6.43;4.78;;;26.10;67.30;;;;;;10821035;33;20028;-75
2022/06/17 03:56:52;;;;;;;6.30;4.62;;;26.00;67.60;;;;;;10820924;33;20070;-75
2022/06/17 04:02:59;;;;;;;7.45;5.25;;;26.00;67.80;;;;;;10825776;33;20053;-75
2022/06/17 04:09:14;;;;;;;6.43;4.32;;;26.10;67.50;;;;;;10831410;33;20051;-75
2022/06/17 04:15:25;;;;;;;7.32;5.07;;;26.00;67.50;;;;;;10831242;33;20352;-75
2022/06/17 04:21:28;;;;;;;10.63;6.62;;;25.90;67.70;;;;;;10826920;33;20435;-75
2022/06/17 04:27:56;;;;;;;7.82;5.80;;;25.90;67.80;;;;;;10830692;33;20027;-75
2022/06/17 04:34:13;;;;;;;6.85;5.28;;;26.00;67.60;;;;;;10830439;33;20032;-75
2022/06/17 04:40:40;;;;;;;7.78;6.00;;;26.00;67.60;;;;;;10817327;33;20051;-75
2022/06/17 04:46:54;;;;;;;6.12;5.32;;;26.00;67.70;;;;;;10829992;33;20408;-75
2022/06/17 04:52:58;;;;;;;6.97;5.15;;;26.10;67.50;;;;;;10830091;33;20019;-75
2022/06/17 04:59:18;;;;;;;6.72;4.75;;;26.20;67.50;;;;;;10829596;33;20024;-75
2022/06/17 05:05:34;;;;;;;9.88;4.75;;;26.30;67.40;;;;;;10829670;33;20028;-75
2022/06/17 05:11:43;;;;;;;6.93;5.43;;;26.40;67.60;;;;;;10824953;32;20032;-77
2022/06/17 05:17:46;;;;;;;7.97;5.87;;;26.50;67.50;;;;;;10829065;33;20028;-77
2022/06/17 05:23:52;;;;;;;6.82;4.72;;;26.50;67.50;;;;;;10828563;33;20032;-78
2022/06/17 05:29:56;;;;;;;7.90;4.95;;;26.60;67.30;;;;;;10824312;33;20062;-77
2022/06/17 05:36:00;;;;;;;7.55;5.60;;;26.80;67.30;;;;;;10828098;33;20047;-77
2022/06/17 05:42:05;;;;;;;7.75;4.87;;;26.90;66.90;;;;;;10828557;32;20050;-78
2022/06/17 05:48:08;;;;;;;6.40;5.15;;;27.10;66.70;;;;;;10828394;33;20028;-78
2022/06/17 05:54:11;;;;;;;8.90;4.75;;;27.30;66.40;;;;;;10828874;33;20024;-78
2022/06/17 06:00:15;;;;;;;8.57;5.22;;;27.40;66.20;;;;;;10827347;33;20036;-77
2022/06/17 06:06:39;;;;;;;8.48;4.45;;;27.40;66.10;;;;;;10833312;33;20046;-79
2022/06/17 06:12:54;;;;;;;4.75;3.62;;;27.50;65.70;;;;;;10824605;33;20096;-78
2022/06/17 06:18:57;;;;;;;5.75;4.22;;;27.60;65.60;;;;;;10827895;32;20047;-79
2022/06/17 06:25:02;;;;;;;7.10;4.62;;;27.70;65.40;;;;;;10825266;32;20035;-79
2022/06/17 06:31:24;;;;;;;5.22;3.65;;;27.70;65.30;;;;;;10820134;33;20032;-78
2022/06/17 06:37:27;;;;;;;8.63;5.15;;;27.90;65.00;;;;;;10827015;33;20344;-79
2022/06/17 06:43:30;;;;;;;3.78;3.33;;;28.10;64.80;;;;;;10827076;33;20059;-78
2022/06/17 06:49:37;;;;;;;6.90;4.90;;;28.20;64.70;;;;;;10827095;33;20416;-78
2022/06/17 06:55:39;;;;;;;6.95;4.68;;;28.20;64.70;;;;;;10826376;33;20438;-77
2022/06/17 07:01:42;;;;;;;6.87;4.70;;;28.20;64.80;;;;;;10822104;33;20040;-78
2022/06/17 07:07:46;;;;;;;15.23;5.47;;;28.30;64.40;;;;;;10821840;33;20032;-79
2022/06/17 07:13:48;;;;;;;7.28;5.25;;;28.50;63.80;;;;;;10821957;33;20036;-78
2022/06/17 07:19:50;;;;;;;6.72;4.22;;;28.60;63.80;;;;;;10825350;33;20082;-78
2022/06/17 07:25:53;;;;;;;13.48;4.68;;;28.60;63.50;;;;;;10825758;33;20024;-78
2022/06/17 07:31:55;;;;;;;7.72;4.50;;;28.70;63.50;;;;;;10826118;33;20325;-79
2022/06/17 07:44:19;;;;;;;4.53;3.15;;;28.90;62.90;;;;;;10430898;27;12219767;-78
2022/06/17 07:50:29;;;;;;;6.12;4.12;;;29.00;62.50;;;;;;10747271;33;20098;-78
2022/06/17 07:56:31;;;;;;;6.45;4.43;;;29.10;62.20;;;;;;10746624;33;20076;-78
2022/06/17 08:02:33;;;;;;;8.25;4.30;;;29.20;61.90;;;;;;10743759;33;20037;-78
2022/06/17 08:08:36;;;;;;;6.07;4.12;;;29.40;61.50;;;;;;10747012;33;20365;-78
2022/06/17 08:14:43;;;;;;;4.35;3.40;;;29.40;61.10;;;;;;10753324;33;20050;-78
2022/06/17 08:20:45;;;;;;;4.22;3.22;;;29.50;60.90;;;;;;10810361;33;20047;-78
2022/06/17 08:26:48;;;;;;;5.55;3.40;;;29.50;60.70;;;;;;10820961;33;20032;-79
2022/06/17 08:32:53;;;;;;;4.15;3.40;;;29.60;60.10;;;;;;10823814;33;20024;-77
2022/06/17 08:39:01;;;;;;;8.15;5.07;;;29.80;59.30;;;;;;10806170;33;20050;-77
2022/06/17 08:45:06;;;;;;;6.72;3.87;;;30.00;58.90;;;;;;10823230;32;20027;-78
2022/06/17 08:51:18;;;;;;;5.07;3.35;;;30.00;58.70;;;;;;10792648;33;20324;-78
2022/06/17 08:57:27;;;;;;;6.45;4.10;;;30.30;58.50;;;;;;10792560;33;20068;-80
2022/06/17 09:03:32;;;;;;;5.18;3.53;;;30.40;58.00;;;;;;10793107;33;20051;-80
2022/06/17 09:09:56;;;;;;;11.80;3.30;;;30.50;57.60;;;;;;10789620;33;20062;-78
2022/06/17 09:16:30;;;;;;;5.85;3.55;;;30.80;57.30;;;;;;10779939;33;20033;-75
2022/06/17 09:22:38;;;;;;;5.40;3.62;;;30.90;56.50;;;;;;10787413;33;20032;-77
2022/06/17 09:28:49;;;;;;;5.70;3.78;;;30.90;55.90;;;;;;10789169;33;20036;-79
2022/06/17 09:35:04;;;;;;;5.20;3.50;;;31.00;55.40;;;;;;10778521;33;20392;-78
2022/06/17 09:41:15;;;;;;;5.47;3.97;;;31.10;55.30;;;;;;10790214;33;20336;-79
2022/06/17 09:47:51;;;;;;;7.18;3.90;;;31.30;54.70;;;;;;10787432;33;20036;-79
2022/06/17 09:54:00;;;;;;;5.87;4.62;;;31.60;54.10;;;;;;10788325;33;20016;-74
2022/06/17 10:00:15;;;;;;;7.25;5.07;;;31.70;54.10;;;;;;10786487;33;20051;-74
2022/06/17 10:06:38;;;;;;;5.15;3.60;;;31.80;53.70;;;;;;10790129;33;20025;-74
2022/06/17 10:13:15;;;;;;;8.30;4.00;;;32.00;52.80;;;;;;10790590;33;20074;-75
2022/06/17 10:19:17;;;;;;;8.37;4.63;;;32.20;52.60;;;;;;10785706;33;20393;-74
2022/06/17 10:26:01;;;;;;;6.43;4.15;;;32.40;52.40;;;;;;10788905;33;20024;-75
2022/06/17 10:32:05;;;;;;;6.28;4.30;;;32.60;51.70;;;;;;10606314;33;20030;-75
2022/06/17 10:38:15;;;;;;;9.85;5.62;;;32.70;51.00;;;;;;10606175;33;20026;-74
2022/06/17 10:44:22;;;;;;;9.10;5.97;;;32.80;50.60;;;;;;10593923;33;20319;-75
2022/06/17 10:50:29;;;;;;;9.40;5.05;;;32.90;50.00;;;;;;10604016;33;20053;-75
2022/06/17 10:56:41;;;;;;;15.40;5.83;;;33.00;49.50;;;;;;10603029;33;20186;-75
2022/06/17 11:02:44;;;;;;;7.07;4.95;;;33.30;49.10;;;;;;10654711;33;20054;-76
2022/06/17 11:08:49;;;;;;;8.32;4.75;;;33.60;48.80;;;;;;10774298;33;20051;-75
2022/06/17 11:14:56;;;;;;;11.93;4.65;;;33.70;48.60;;;;;;10789982;33;20360;-75
2022/06/17 11:21:03;;;;;;;7.18;5.22;;;33.80;48.30;;;;;;10785005;33;20051;-74
2022/06/17 11:27:29;;;;;;;11.60;5.00;;;33.90;47.60;;;;;;10788301;33;20044;-75
2022/06/17 11:33:53;;;;;;;5.68;3.70;;;34.00;46.90;;;;;;10785869;33;20101;-75
2022/06/17 11:40:19;;;;;;;7.87;3.53;;;34.30;46.90;;;;;;10788206;33;20032;-74
2022/06/17 11:46:27;;;;;;;7.62;3.62;;;34.60;46.10;;;;;;10787545;33;20055;-76
2022/06/17 11:52:34;;;;;;;5.55;2.70;;;34.70;45.70;;;;;;10787900;33;20044;-75
2022/06/17 11:58:54;;;;;;;7.18;3.75;;;34.90;45.40;;;;;;10787489;33;20392;-74
2022/06/17 12:05:36;;;;;;;5.75;3.53;;;35.10;44.70;;;;;;10783663;33;20082;-76
2022/06/17 12:11:53;;;;;;;10.35;4.15;;;35.30;44.60;;;;;;10602969;33;20034;-75
2022/06/17 12:17:59;;;;;;;11.00;3.40;;;35.50;43.80;;;;;;10604036;33;20057;-75
2022/06/17 12:24:24;;;;;;;6.97;4.55;;;35.50;42.70;;;;;;10604943;33;20088;-76
2022/06/17 12:30:49;;;;;;;3.62;2.60;;;35.50;42.40;;;;;;10432524;33;20395;-75
2022/06/17 12:36:59;;;;;;;17.77;3.97;;;35.30;43.30;;;;;;10431390;33;20071;-75
2022/06/17 12:43:04;;;;;;;7.30;4.18;;;35.40;42.60;;;;;;10452426;33;20056;-74
2022/06/17 12:56:07;;;;;;;5.32;3.83;;;35.30;42.70;;;;;;10609156;33;20037;-75
2022/06/17 13:02:17;;;;;;;10.93;5.22;;;35.40;42.00;;;;;;10608370;33;20350;-77
2022/06/17 13:08:42;;;;;;;7.70;4.32;;;35.40;41.90;;;;;;10778631;33;20306;-74
2022/06/17 13:15:06;;;;;;;7.50;4.43;;;35.30;42.80;;;;;;10795444;33;20047;-75
2022/06/17 13:21:33;;;;;;;8.77;4.87;;;35.30;42.90;;;;;;10774992;33;20035;-74
2022/06/17 13:28:16;;;;;;;7.65;4.75;;;35.30;42.70;;;;;;10792359;33;20012;-75
2022/06/17 13:34:45;;;;;;;5.15;4.43;;;35.00;42.40;;;;;;10791742;33;20032;-75
2022/06/17 13:40:54;;;;;;;4.50;4.03;;;35.10;42.30;;;;;;10791615;33;20036;-74
2022/06/17 13:47:03;;;;;;;5.68;4.12;;;34.90;42.90;;;;;;10779113;33;20040;-81
2022/06/17 13:53:17;;;;;;;7.70;5.00;;;34.90;42.80;;;;;;10793474;33;20024;-79
2022/06/17 13:59:29;;;;;;;7.43;5.18;;;35.00;42.70;;;;;;10792642;33;20033;-80
2022/06/17 14:05:33;;;;;;;5.65;4.15;;;35.00;42.70;;;;;;10791646;33;20438;-80
2022/06/17 14:11:39;;;;;;;5.18;4.05;;;35.00;42.70;;;;;;10790964;33;20036;-79
2022/06/17 14:17:51;;;;;;;5.57;4.50;;;34.90;43.90;;;;;;10789555;33;20438;-81
2022/06/17 14:23:59;;;;;;;7.30;5.00;;;34.80;43.80;;;;;;10789981;33;20442;-81
2022/06/17 14:30:35;;;;;;;8.75;4.35;;;34.80;43.50;;;;;;10788803;33;20036;-75
2022/06/17 14:37:19;;;;;;;4.90;3.67;;;35.00;43.40;;;;;;10785116;33;20446;-75
2022/06/17 14:43:25;;;;;;;16.37;4.97;;;35.00;43.30;;;;;;10823472;32;20080;-76
2022/06/17 14:49:42;;;;;;;6.68;4.78;;;34.90;43.80;;;;;;10823863;32;20027;-75
2022/06/17 14:56:15;;;;;;;8.40;4.72;;;34.80;43.90;;;;;;10857658;32;20023;-76
2022/06/17 15:02:22;;;;;;;10.43;4.57;;;35.00;43.70;;;;;;10854151;32;20024;-77
2022/06/17 15:08:32;;;;;;;4.60;3.62;;;34.90;44.30;;;;;;10866184;32;20028;-76
2022/06/17 15:14:45;;;;;;;3.75;3.15;;;35.00;44.10;;;;;;10831889;32;20050;-74
2022/06/17 15:20:51;;;;;;;5.95;4.03;;;34.90;44.70;;;;;;10826223;33;20024;-75
2022/06/17 15:27:18;;;;;;;3.73;2.87;;;34.80;45.30;;;;;;10826287;33;20027;-76
2022/06/17 15:33:26;;;;;;;4.65;3.00;;;34.60;44.90;;;;;;10813122;33;20362;-75
2022/06/17 15:39:29;;;;;;;4.95;2.67;;;34.60;43.90;;;;;;10825996;33;20434;-75
2022/06/17 15:45:34;;;;;;;8.43;2.45;;;34.50;44.10;;;;;;10850236;27;20031;-75
2022/06/17 15:51:45;;;;;;;4.75;2.72;;;34.50;43.80;;;;;;10798644;33;20036;-76
2022/06/17 15:57:53;;;;;;;3.87;2.33;;;34.40;43.80;;;;;;10819617;33;20024;-75
2022/06/17 16:03:58;;;;;;;8.20;2.60;;;34.40;43.50;;;;;;10806774;33;20062;-75
2022/06/17 16:10:01;;;;;;;3.60;2.00;;;34.50;43.10;;;;;;10821980;32;20055;-79
2022/06/17 16:16:12;;;;;;;8.00;3.03;;;34.50;42.10;;;;;;10827383;33;20023;-78
2022/06/17 16:22:16;;;;;;;8.55;2.42;;;34.50;40.60;;;;;;10828943;33;20020;-79
2022/06/17 16:28:33;;;;;;;3.42;2.10;;;34.40;40.20;;;;;;10814510;33;20043;-78
2022/06/17 16:34:40;;;;;;;;;;;34.40;40.10;;;;;;10827667;33;20051;-78
2022/06/17 16:47:14;;;;;;;3.85;2.33;;;34.30;40.80;;;;;;10825824;32;20063;-77
2022/06/17 16:53:16;;;;;;;3.40;1.48;;;34.20;40.80;;;;;;10825541;33;20036;-79
2022/06/17 16:59:19;;;;;;;3.25;2.22;;;34.20;41.60;;;;;;10821434;33;20054;-78
2022/06/17 17:05:21;;;;;;;3.12;1.52;;;34.10;41.30;;;;;;10822630;32;20036;-80
2022/06/17 17:11:24;;;;;;;4.10;2.15;;;33.90;42.50;;;;;;10825837;32;20024;-79
2022/06/17 17:17:26;;;;;;;6.45;2.20;;;33.70;43.20;;;;;;10830536;33;20035;-78
2022/06/17 17:23:34;;;;;;;9.05;2.37;;;33.50;43.80;;;;;;10830287;33;20047;-78
2022/06/17 17:29:39;;;;;;;2.45;1.90;;;33.40;44.40;;;;;;10829650;33;20028;-82
2022/06/17 17:35:42;;;;;;;4.82;2.55;;;33.30;44.60;;;;;;10829084;33;20058;-75
2022/06/17 17:41:45;;;;;;;4.45;2.00;;;33.20;44.50;;;;;;10829127;32;20046;-75
2022/06/17 17:47:49;;;;;;;3.17;1.87;;;33.10;44.70;;;;;;10829082;33;20032;-75
2022/06/17 17:53:52;;;;;;;2.45;1.98;;;33.10;44.90;;;;;;10824798;33;20046;-74
2022/06/17 17:59:56;;;;;;;8.05;2.67;;;32.90;46.20;;;;;;10828524;33;20046;-75
2022/06/17 18:05:59;;;;;;;2.30;1.55;;;32.80;46.10;;;;;;10814419;33;20040;-76
2022/06/17 18:12:04;;;;;;;5.68;1.95;;;32.80;46.10;;;;;;10824486;33;20024;-76
2022/06/17 18:18:07;;;;;;;4.40;1.98;;;32.80;45.90;;;;;;10823168;33;20051;-75
2022/06/17 18:24:12;;;;;;;4.82;1.98;;;32.70;46.10;;;;;;10822649;33;20035;-76
2022/06/17 18:30:17;;;;;;;5.47;1.75;;;32.50;46.40;;;;;;10822607;33;20066;-76
2022/06/17 18:36:19;;;;;;;2.95;1.80;;;32.40;46.30;;;;;;10827084;33;20020;-75
2022/06/17 18:42:36;;;;;;;3.20;1.30;;;32.30;46.20;;;;;;10822622;32;20036;-75
2022/06/17 18:48:38;;;;;;;3.78;1.95;;;32.30;46.40;;;;;;10824278;33;20061;-75
2022/06/17 18:54:42;;;;;;;1.55;1.45;;;32.20;46.30;;;;;;10808933;33;20028;-76
2022/06/17 19:00:49;;;;;;;2.75;2.03;;;32.10;46.70;;;;;;10826055;33;20020;-76
2022/06/17 19:06:51;;;;;;;2.17;1.50;;;32.00;47.00;;;;;;10825667;33;20063;-76
2022/06/17 19:19:15;;;;;;;2.22;1.48;;;31.80;48.50;;;;;;10826209;33;20047;-75
2022/06/17 19:25:19;;;;;;;4.95;1.75;;;31.70;48.90;;;;;;10822363;33;20027;-74
2022/06/17 19:31:34;;;;;;;3.92;1.48;;;31.70;49.10;;;;;;10824821;32;20050;-76
2022/06/17 19:37:36;;;;;;;2.42;1.55;;;31.60;49.90;;;;;;10825463;33;20024;-75
2022/06/17 19:43:38;;;;;;;3.42;1.98;;;31.40;50.50;;;;;;10825821;33;20062;-75
2022/06/17 19:49:54;;;;;;;1.92;1.55;;;31.40;51.20;;;;;;10825636;33;20046;-75
2022/06/17 19:55:56;;;;;;;1.80;1.27;;;31.30;51.50;;;;;;10812327;33;20028;-76
2022/06/17 20:01:59;;;;;;;2.25;1.48;;;31.30;51.70;;;;;;10824607;33;20020;-76
2022/06/17 20:31:58;;;;;;;3.67;2.12;;;31.10;52.00;;;;;;10628787;32;12420516;-67
2022/06/17 20:38:03;;;;;;;7.00;1.70;;;30.80;51.70;;;;;;10970367;32;20061;-66
2022/06/17 20:44:13;;;;;;;4.15;2.25;;;30.50;52.40;;;;;;10970589;32;20326;-67
2022/06/17 20:50:16;;;;;;;2.50;1.50;;;30.30;52.90;;;;;;10957854;32;20145;-67
2022/06/17 20:56:27;;;;;;;4.18;1.67;;;30.30;53.30;;;;;;10970377;32;20046;-67
2022/06/17 21:02:29;;;;;;;1.48;1.30;;;30.30;53.70;;;;;;10996866;32;20057;-67
2022/06/17 21:08:35;;;;;;;2.95;1.40;;;30.20;54.10;;;;;;11010476;32;20049;-67
2022/06/17 21:14:38;;;;;;;2.97;1.25;;;30.10;55.00;;;;;;11011096;32;20026;-67
2022/06/17 21:20:42;;;;;;;2.03;1.48;;;30.00;55.30;;;;;;11010831;32;20042;-67
2022/06/17 21:26:45;;;;;;;6.25;1.35;;;30.00;55.30;;;;;;11010647;32;20045;-67
2022/06/17 21:32:47;;;;;;;5.68;1.52;;;30.00;55.50;;;;;;10985786;32;20027;-67
2022/06/17 21:38:57;;;;;;;4.00;1.40;;;29.90;55.80;;;;;;10984696;32;20026;-67
2022/06/17 21:44:59;;;;;;;2.72;1.58;;;29.90;56.60;;;;;;10984584;32;20026;-67
2022/06/17 21:51:05;;;;;;;2.17;1.02;;;30.00;56.90;;;;;;10966216;32;20022;-67
2022/06/17 21:57:20;;;;;;;2.12;1.33;;;29.80;57.00;;;;;;10946282;32;20027;-67
2022/06/17 22:03:23;;;;;;;3.17;2.03;;;29.80;57.40;;;;;;10946166;32;20331;-67
2022/06/17 22:09:27;;;;;;;2.15;1.15;;;29.60;58.90;;;;;;10946169;32;20053;-67
2022/06/17 22:15:31;;;;;;;2.45;1.40;;;29.60;59.60;;;;;;10946025;32;20046;-67
2022/06/17 22:21:35;;;;;;;2.20;1.50;;;29.60;59.70;;;;;;10945753;32;20425;-67
2022/06/17 22:27:37;;;;;;;2.72;1.23;;;29.60;60.20;;;;;;10945588;32;20031;-67
2022/06/17 22:33:39;;;;;;;2.08;1.27;;;29.70;59.80;;;;;;10945258;32;20035;-67
2022/06/17 22:39:43;;;;;;;2.75;1.60;;;29.60;60.70;;;;;;10944138;32;20387;-67
2022/06/17 22:45:57;;;;;;;2.25;1.40;;;29.50;61.40;;;;;;10944857;32;20035;-66
2022/06/17 22:51:59;;;;;;;5.12;1.70;;;29.30;61.70;;;;;;10940266;32;20057;-67
2022/06/17 22:58:02;;;;;;;2.50;1.37;;;29.40;61.90;;;;;;10944373;32;20026;-67
2022/06/17 23:10:27;;;;;;;2.08;1.58;;;29.30;61.00;;;;;;10943845;32;20089;-67
2022/06/17 23:16:29;;;;;;;5.40;1.95;;;29.30;61.30;;;;;;10943713;32;20018;-67
2022/06/17 23:22:38;;;;;;;2.87;1.73;;;29.30;61.90;;;;;;10943604;32;20041;-67
2022/06/17 23:28:42;;;;;;;2.47;1.73;;;29.20;62.00;;;;;;10943308;32;20015;-67
2022/06/17 23:34:51;;;;;;;2.17;1.10;;;29.10;62.00;;;;;;10942314;32;20093;-67
2022/06/17 23:40:53;;;;;;;1.83;1.20;;;28.90;62.10;;;;;;10941948;32;20046;-67
2022/06/17 23:46:57;;;;;;;4.22;1.70;;;28.90;62.10;;;;;;10942672;32;20026;-67
2022/06/17 23:53:00;;;;;;;10.63;1.92;;;28.90;61.90;;;;;;10942317;32;20023;-67
2022/06/17 23:59:04;;;;;;;3.22;1.87;;;28.90;62.40;;;;;;10938116;32;20038;-67
